Mappsville, Virginia
Current Conditions -  °F | °C
As of 12:54 AM on Friday 31 Oct 2014 (Local Time) from KWAL Reporting Station
Clear Clear  
Wind Chill: 44°   Ceiling: Unl
Heat Index: 47°   Visibility: 10mi
Dew Point: 39°   Wind: 6mph
Humidity: 74%   Direction: 360°N
Pressure: 30.02"   Gusts: NA
Location:  37.85°N, 75.57°W
Report Text: KWAL 310454Z AUTO 36005KT 10SM CLR 08/04 A3002 RMK AO2 SLP163 T00830039 401780083
Loading
Personal Weather Stations






























Interactive Weather Map
Tropical Storm Tracking
New forecast layout! Learn more

10-Day Weather Forecast

Advertisements
Track Severe Weather on mobile